Terminal Aerodrome Forecast
Issued by NWS Shreveport, LA

Home | Current Version | Previous Version | Text Only | Print | Product List | Glossary On
Versions: 1 2 3 4 5 6 7 8 9 10 11 12 13 14 15 16 17
000
FTUS44 KSHV 102343
TAFTXK
TAF
KTXK 102343Z 1100/1124 16005KT P6SM OVC060
     FM110300 16008KT P6SM BKN050
     FM111300 18012G20KT P6SM BKN015
     FM111800 18014G22KT P6SM VCSH BKN009 OVC015=

USA.gov is the U.S. government's official web portal to all federal, state and local government web resources and services.